createdAt,value
2022-12-23T00:01:30.825Z,3.99
2022-12-23T00:03:57.247Z,3.99
2022-12-23T00:06:23.664Z,4.01
2022-12-23T00:08:50.011Z,4.02
2022-12-23T00:11:16.567Z,4.06
2022-12-23T00:13:42.913Z,4.06
2022-12-23T00:16:09.322Z,4.03
2022-12-23T00:18:35.922Z,4.02
2022-12-23T00:21:08.335Z,4.02
2022-12-23T00:23:35.610Z,4.02
2022-12-23T00:26:01.977Z,4.01
2022-12-23T00:28:28.551Z,4.03
2022-12-23T00:30:54.895Z,4.01
2022-12-23T00:33:21.445Z,3.99
2022-12-23T00:35:47.844Z,4.02
2022-12-23T00:38:14.270Z,3.99
2022-12-23T00:40:40.642Z,4.01
2022-12-23T00:43:06.983Z,4.02
2022-12-23T00:45:33.352Z,4.01
2022-12-23T00:47:59.733Z,4.01
2022-12-23T00:50:26.065Z,4.03
2022-12-23T00:52:52.404Z,4.03
2022-12-23T00:55:18.757Z,4.07
2022-12-23T00:57:45.093Z,4.05
2022-12-23T01:00:11.441Z,4.03
2022-12-23T01:02:37.892Z,4.03
2022-12-23T01:05:04.513Z,4.05
2022-12-23T01:07:31.085Z,4.05
2022-12-23T01:09:57.432Z,4.03
2022-12-23T01:12:24.000Z,4.05
2022-12-23T01:14:50.398Z,4.07
2022-12-23T01:17:17.088Z,4.06
2022-12-23T01:19:43.598Z,4.06
2022-12-23T01:22:09.949Z,4.02
2022-12-23T01:24:36.307Z,4.06
2022-12-23T01:27:02.865Z,4.03
2022-12-23T01:29:29.209Z,4.09
2022-12-23T01:31:55.634Z,4.09
2022-12-23T01:34:22.051Z,4.10
2022-12-23T01:36:48.617Z,4.06
2022-12-23T01:39:15.013Z,4.09
2022-12-23T01:41:41.379Z,4.09
2022-12-23T01:44:07.943Z,4.12
2022-12-23T01:46:34.320Z,4.10
2022-12-23T01:49:00.682Z,4.12
2022-12-23T01:51:27.082Z,4.15
2022-12-23T01:53:53.465Z,4.12
2022-12-23T01:56:19.805Z,4.12
2022-12-23T01:58:46.153Z,4.12
2022-12-23T02:01:12.605Z,4.10
2022-12-23T02:03:39.031Z,4.10
2022-12-23T02:06:05.624Z,4.12
2022-12-23T02:08:31.972Z,4.10
2022-12-23T02:10:58.321Z,4.12
2022-12-23T02:13:24.679Z,4.12
2022-12-23T02:15:51.011Z,4.13
2022-12-23T02:18:17.564Z,4.15
2022-12-23T02:20:44.120Z,4.12
2022-12-23T02:23:10.469Z,4.12
2022-12-23T02:25:36.814Z,4.12
2022-12-23T02:28:03.165Z,4.16
2022-12-23T02:30:29.540Z,4.15
2022-12-23T02:32:55.915Z,4.16
2022-12-23T02:35:22.267Z,4.13
2022-12-23T02:37:48.604Z,4.16
2022-12-23T02:40:14.953Z,4.12
2022-12-23T02:42:41.298Z,4.13
2022-12-23T02:45:07.636Z,4.10
2022-12-23T02:47:33.982Z,4.15
2022-12-23T02:50:00.329Z,4.12
2022-12-23T02:52:26.668Z,4.15
2022-12-23T02:54:53.010Z,4.15
2022-12-23T02:57:19.381Z,4.16
2022-12-23T02:59:45.747Z,4.19
2022-12-23T03:02:12.244Z,4.17
2022-12-23T03:04:38.743Z,4.16
2022-12-23T03:07:08.010Z,4.17
2022-12-23T03:09:35.469Z,4.15
2022-12-23T03:12:01.850Z,4.16
2022-12-23T03:14:28.197Z,4.13
2022-12-23T03:16:54.786Z,4.15
2022-12-23T03:19:21.371Z,4.17
2022-12-23T03:21:47.957Z,4.16
2022-12-23T03:24:14.316Z,4.20
2022-12-23T03:26:40.660Z,4.20
2022-12-23T03:29:06.989Z,4.19
2022-12-23T03:31:33.362Z,4.16
2022-12-23T03:33:59.766Z,4.15
2022-12-23T03:36:26.146Z,4.19
2022-12-23T03:38:52.748Z,4.17
2022-12-23T03:41:19.118Z,4.16
2022-12-23T03:43:50.671Z,4.15
2022-12-23T03:46:17.698Z,4.17
2022-12-23T03:48:44.353Z,4.20
2022-12-23T03:51:10.706Z,4.20
2022-12-23T03:53:37.052Z,4.23
2022-12-23T03:56:03.385Z,4.17
2022-12-23T03:58:29.977Z,4.22
2022-12-23T04:00:56.339Z,4.22
2022-12-23T04:03:22.727Z,4.19
2022-12-23T04:05:49.142Z,4.22
2022-12-23T04:08:15.504Z,4.20
2022-12-23T04:10:41.878Z,4.20
2022-12-23T04:13:08.318Z,4.20
2022-12-23T04:15:34.675Z,4.23
2022-12-23T04:18:01.036Z,4.23
2022-12-23T04:20:27.409Z,4.22
2022-12-23T04:22:53.979Z,4.26
2022-12-23T04:25:20.349Z,4.23
2022-12-23T04:27:46.704Z,4.23
2022-12-23T04:30:13.261Z,4.22
2022-12-23T04:32:39.603Z,4.24
2022-12-23T04:35:05.945Z,4.23
2022-12-23T04:37:32.288Z,4.22
2022-12-23T04:39:58.660Z,4.23
2022-12-23T04:42:25.031Z,4.23
2022-12-23T04:44:51.384Z,4.23
2022-12-23T04:47:18.195Z,4.24
2022-12-23T04:49:44.748Z,4.23
2022-12-23T04:52:11.128Z,4.28
2022-12-23T04:54:43.898Z,4.23
2022-12-23T04:57:12.226Z,4.24
2022-12-23T04:59:38.776Z,4.23
2022-12-23T05:02:05.240Z,4.24
2022-12-23T05:04:31.749Z,4.22
2022-12-23T05:06:58.157Z,4.26
2022-12-23T05:09:24.549Z,4.23
2022-12-23T05:11:50.946Z,4.30
2022-12-23T05:14:17.301Z,4.26
2022-12-23T05:16:43.966Z,4.24
2022-12-23T05:19:10.343Z,4.24
2022-12-23T05:21:36.707Z,4.28
2022-12-23T05:24:03.072Z,4.28
2022-12-23T05:26:29.457Z,4.20
2022-12-23T05:28:55.834Z,4.22
2022-12-23T05:31:22.297Z,4.22
2022-12-23T05:33:48.736Z,4.28
2022-12-23T05:36:15.115Z,4.29
2022-12-23T05:38:41.479Z,4.30
2022-12-23T05:41:07.852Z,4.26
2022-12-23T05:43:34.201Z,4.24
2022-12-23T05:46:00.610Z,4.26
2022-12-23T05:48:27.000Z,4.22
2022-12-23T05:50:53.361Z,4.28
2022-12-23T05:53:19.996Z,4.33
2022-12-23T05:55:46.334Z,4.33
2022-12-23T05:58:12.679Z,4.30
2022-12-23T06:00:39.257Z,4.28
2022-12-23T06:03:05.771Z,4.32
2022-12-23T06:05:32.270Z,4.28
2022-12-23T06:07:58.828Z,4.30
2022-12-23T06:10:25.172Z,4.30
2022-12-23T06:12:51.793Z,4.30
2022-12-23T06:15:18.153Z,4.29
2022-12-23T06:17:44.519Z,4.29
2022-12-23T06:20:17.928Z,4.32
2022-12-23T06:22:46.523Z,4.34
2022-12-23T06:25:12.900Z,4.32
2022-12-23T06:27:39.249Z,4.34
2022-12-23T06:30:05.627Z,4.36
2022-12-23T06:32:37.901Z,4.33
2022-12-23T06:35:05.072Z,4.33
2022-12-23T06:37:31.450Z,4.34
2022-12-23T06:39:57.824Z,4.33
2022-12-23T06:42:24.432Z,4.33
2022-12-23T06:44:50.779Z,4.33
2022-12-23T06:47:17.150Z,4.29
2022-12-23T06:49:43.547Z,4.29
2022-12-23T06:52:10.120Z,4.32
2022-12-23T06:54:36.522Z,4.32
2022-12-23T06:57:02.893Z,4.30
2022-12-23T06:59:29.289Z,4.32
2022-12-23T07:01:55.879Z,4.32
2022-12-23T07:04:22.333Z,4.32
2022-12-23T07:06:48.753Z,4.33
2022-12-23T07:09:15.141Z,4.34
2022-12-23T07:11:41.496Z,4.33
2022-12-23T07:14:07.876Z,4.37
2022-12-23T07:16:34.277Z,4.33
2022-12-23T07:19:01.080Z,4.32
2022-12-23T07:21:29.741Z,4.34
2022-12-23T07:23:56.549Z,4.34
2022-12-23T07:26:22.906Z,4.34
2022-12-23T07:28:49.236Z,4.34
2022-12-23T07:31:15.630Z,4.37
2022-12-23T07:33:42.005Z,4.39
2022-12-23T07:36:08.375Z,4.34
2022-12-23T07:38:35.043Z,4.36
2022-12-23T07:41:01.385Z,4.37
2022-12-23T07:43:27.959Z,4.36
2022-12-23T07:46:00.037Z,4.36
2022-12-23T07:48:27.291Z,4.39
2022-12-23T07:50:53.663Z,4.34
2022-12-23T07:53:20.029Z,4.37
2022-12-23T07:55:50.114Z,4.37
2022-12-23T07:58:19.410Z,4.37
2022-12-23T08:00:46.669Z,4.37
2022-12-23T08:03:13.177Z,4.37
2022-12-23T08:05:39.648Z,4.37
2022-12-23T08:08:06.004Z,4.39
2022-12-23T08:10:32.395Z,4.39
2022-12-23T08:12:58.746Z,4.37
2022-12-23T08:15:25.328Z,4.40
2022-12-23T08:17:51.935Z,4.43
2022-12-23T08:20:18.319Z,4.39
2022-12-23T08:22:44.685Z,4.42
2022-12-23T08:25:11.040Z,4.43
2022-12-23T08:27:37.490Z,4.40
2022-12-23T08:30:03.840Z,4.40
2022-12-23T08:32:30.427Z,4.37
2022-12-23T08:34:56.774Z,4.39
2022-12-23T08:37:23.114Z,4.40
2022-12-23T08:39:49.621Z,4.39
2022-12-23T08:42:16.001Z,4.40
2022-12-23T08:44:42.402Z,4.40
2022-12-23T08:47:08.967Z,4.37
2022-12-23T08:49:35.321Z,4.39
2022-12-23T08:52:01.922Z,4.39
2022-12-23T08:54:28.347Z,4.39
2022-12-23T08:56:54.701Z,4.37
2022-12-23T08:59:21.079Z,4.40
2022-12-23T09:01:47.671Z,4.39
2022-12-23T09:04:14.241Z,4.42
2022-12-23T09:06:40.596Z,4.43
2022-12-23T09:09:06.992Z,4.40
2022-12-23T09:11:33.892Z,4.37
2022-12-23T09:14:00.252Z,4.40
2022-12-23T09:16:26.720Z,4.40
2022-12-23T09:18:53.136Z,4.40
2022-12-23T09:21:19.527Z,4.40
2022-12-23T09:23:46.110Z,4.42
2022-12-23T09:26:12.452Z,4.42
2022-12-23T09:28:38.811Z,4.44
2022-12-23T09:31:05.300Z,4.43
2022-12-23T09:33:31.770Z,4.40
2022-12-23T09:35:58.122Z,4.47
2022-12-23T09:38:24.471Z,4.47
2022-12-23T09:40:50.818Z,4.46
2022-12-23T09:43:17.179Z,4.42
2022-12-23T09:45:43.532Z,4.36
2022-12-23T09:48:09.875Z,4.42
2022-12-23T09:50:36.224Z,4.42
2022-12-23T09:53:02.593Z,4.46
2022-12-23T09:55:28.964Z,4.47
2022-12-23T09:57:55.390Z,4.44
2022-12-23T10:00:21.748Z,4.43
2022-12-23T10:02:48.322Z,4.47
2022-12-23T10:05:14.781Z,4.44
2022-12-23T10:07:41.137Z,4.46
2022-12-23T10:10:07.519Z,4.46
2022-12-23T10:12:39.515Z,4.43
2022-12-23T10:15:06.552Z,4.47
2022-12-23T10:17:32.912Z,4.44
2022-12-23T10:19:59.283Z,4.50
2022-12-23T10:22:25.631Z,4.50
2022-12-23T10:24:52.014Z,4.46
2022-12-23T10:27:18.381Z,4.46
2022-12-23T10:29:44.746Z,4.46
2022-12-23T10:32:11.135Z,4.42
2022-12-23T10:34:38.717Z,4.46
2022-12-23T10:37:05.378Z,4.50
2022-12-23T10:39:31.788Z,4.47
2022-12-23T10:41:58.148Z,4.44
2022-12-23T10:44:24.551Z,4.50
2022-12-23T10:46:51.005Z,4.49
2022-12-23T10:49:17.421Z,4.50
2022-12-23T10:51:43.825Z,4.47
2022-12-23T10:54:10.187Z,4.47
2022-12-23T10:56:36.555Z,4.50
2022-12-23T10:59:02.906Z,4.50
2022-12-23T11:01:29.394Z,4.50
2022-12-23T11:03:55.940Z,4.49
2022-12-23T11:06:22.573Z,4.49
2022-12-23T11:08:49.556Z,4.49
2022-12-23T11:11:16.099Z,4.46
2022-12-23T11:13:42.452Z,4.49
2022-12-23T11:16:09.142Z,4.47
2022-12-23T11:18:41.794Z,4.50
2022-12-23T11:21:08.416Z,4.51
2022-12-23T11:23:34.771Z,4.51
2022-12-23T11:26:01.145Z,4.51
2022-12-23T11:28:27.490Z,4.50
2022-12-23T11:30:56.539Z,4.47
2022-12-23T11:33:23.494Z,4.49
2022-12-23T11:35:49.904Z,4.51
2022-12-23T11:38:16.260Z,4.51
2022-12-23T11:40:42.834Z,4.49
2022-12-23T11:43:09.184Z,4.49
2022-12-23T11:45:35.745Z,4.51
2022-12-23T11:48:03.280Z,4.56
2022-12-23T11:50:30.631Z,4.54
2022-12-23T11:52:56.992Z,4.53
2022-12-23T11:55:23.361Z,4.53
2022-12-23T11:57:49.706Z,4.53
2022-12-23T12:00:16.075Z,4.53
2022-12-23T12:02:42.491Z,4.51
2022-12-23T12:05:09.065Z,4.50
2022-12-23T12:07:35.426Z,4.54
2022-12-23T12:10:01.803Z,4.54
2022-12-23T12:12:28.161Z,4.51
2022-12-23T12:14:54.921Z,4.53
2022-12-23T12:17:21.301Z,4.54
2022-12-23T12:19:47.679Z,4.54
2022-12-23T12:22:14.420Z,4.54
2022-12-23T12:24:40.980Z,4.53
2022-12-23T12:27:07.789Z,4.57
2022-12-23T12:29:34.161Z,4.58
2022-12-23T12:32:00.500Z,4.56
2022-12-23T12:34:26.866Z,4.56
2022-12-23T12:36:53.358Z,4.57
2022-12-23T12:39:19.769Z,4.57
2022-12-23T12:41:46.159Z,4.57
2022-12-23T12:44:12.500Z,4.57
2022-12-23T12:46:38.873Z,4.61
2022-12-23T12:49:05.259Z,4.57
2022-12-23T12:51:31.630Z,4.58
2022-12-23T12:54:04.406Z,4.57
2022-12-23T12:56:31.955Z,4.58
2022-12-23T12:58:58.296Z,4.58
2022-12-23T13:01:25.099Z,4.58
2022-12-23T13:03:52.573Z,4.57
2022-12-23T13:06:18.934Z,4.57
2022-12-23T13:08:45.529Z,4.60
2022-12-23T13:11:11.890Z,4.57
2022-12-23T13:13:38.252Z,4.56
2022-12-23T13:16:04.800Z,4.61
2022-12-23T13:18:31.476Z,4.57
2022-12-23T13:20:57.839Z,4.60
2022-12-23T13:26:10.614Z,4.58
2022-12-23T13:28:37.165Z,4.57
2022-12-23T13:31:03.642Z,4.57
2022-12-23T13:33:30.061Z,4.60
2022-12-23T13:36:02.949Z,4.58
2022-12-23T13:38:31.564Z,4.64
2022-12-23T13:40:58.184Z,5.12
2022-12-23T13:43:24.545Z,5.16
2022-12-23T13:45:50.937Z,5.40
2022-12-23T13:48:17.576Z,5.28
2022-12-23T13:50:43.934Z,5.25
2022-12-23T13:53:10.292Z,5.32
2022-12-23T13:55:36.870Z,5.26
2022-12-23T13:58:03.457Z,5.13
2022-12-23T14:00:29.837Z,5.07
2022-12-23T14:02:56.299Z,5.02
2022-12-23T14:05:22.640Z,5.09
2022-12-23T14:07:48.978Z,5.12
2022-12-23T14:10:15.528Z,5.08
2022-12-23T14:12:41.865Z,5.01
2022-12-23T14:15:08.253Z,4.96
2022-12-23T14:17:34.615Z,4.96
2022-12-23T14:20:01.007Z,5.01
2022-12-23T14:22:27.611Z,5.04
2022-12-23T14:24:53.999Z,4.95
2022-12-23T14:27:20.387Z,4.96
2022-12-23T14:29:46.742Z,4.98
2022-12-23T14:32:13.305Z,4.99
2022-12-23T14:34:39.645Z,4.98
2022-12-23T14:37:06.054Z,4.95
2022-12-23T14:39:32.457Z,4.89
2022-12-23T14:42:05.512Z,4.95
2022-12-23T14:44:33.855Z,5.04
2022-12-23T14:47:00.461Z,4.99
2022-12-23T14:49:38.999Z,5.13
2022-12-23T14:52:06.826Z,5.09
2022-12-23T14:54:33.383Z,5.12
2022-12-23T14:56:59.727Z,5.07
2022-12-23T14:59:26.103Z,5.08
2022-12-23T15:01:52.491Z,5.18
2022-12-23T15:04:19.479Z,5.13
2022-12-23T15:06:46.068Z,5.16
2022-12-23T15:09:12.420Z,5.08
2022-12-23T15:11:39.025Z,5.04
2022-12-23T15:14:05.615Z,4.98
2022-12-23T15:16:32.229Z,5.01
2022-12-23T15:18:58.809Z,5.25
2022-12-23T15:21:25.161Z,5.26
2022-12-23T15:23:51.542Z,5.15
2022-12-23T15:26:17.909Z,5.12
2022-12-23T15:28:44.286Z,5.22
2022-12-23T15:31:10.750Z,5.18
2022-12-23T15:34:02.767Z,5.12
2022-12-23T15:36:23.719Z,5.05
2022-12-23T15:41:37.411Z,5.05
2022-12-23T15:44:03.755Z,5.23
2022-12-23T15:46:30.783Z,5.36
2022-12-23T15:48:57.307Z,5.26
2022-12-23T15:51:42.920Z,5.32
2022-12-23T15:54:10.200Z,5.33
2022-12-23T15:56:36.556Z,5.50
2022-12-23T15:59:03.648Z,6.05
2022-12-23T16:01:30.034Z,5.86
2022-12-23T16:03:56.517Z,5.68
2022-12-23T16:06:23.043Z,5.63
2022-12-23T16:08:49.394Z,5.61
2022-12-23T16:11:16.039Z,5.61
2022-12-23T16:13:47.277Z,5.36
2022-12-23T16:16:15.959Z,5.47
2022-12-23T16:18:47.236Z,5.47
2022-12-23T16:21:14.333Z,5.29
2022-12-23T16:23:40.702Z,5.22
2022-12-23T16:26:07.901Z,5.36
2022-12-23T16:28:34.286Z,5.53
2022-12-23T16:31:00.639Z,5.64
2022-12-23T16:33:27.229Z,5.54
2022-12-23T16:35:53.613Z,5.50
2022-12-23T16:38:19.976Z,5.63
2022-12-23T16:40:47.370Z,5.74
2022-12-23T16:43:13.708Z,5.81
2022-12-23T16:45:40.105Z,5.70
2022-12-23T16:48:06.788Z,5.75
2022-12-23T16:50:33.345Z,5.94
2022-12-23T16:52:59.917Z,5.93
2022-12-23T16:55:26.319Z,6.07
2022-12-23T16:57:52.985Z,5.93
2022-12-23T17:00:19.360Z,5.83
2022-12-23T17:02:46.433Z,5.88
2022-12-23T17:05:12.869Z,5.80
2022-12-23T17:07:45.030Z,5.56
2022-12-23T17:10:11.866Z,5.42
2022-12-23T17:12:38.458Z,5.36
2022-12-23T17:15:04.836Z,5.33
2022-12-23T17:17:31.201Z,5.25
2022-12-23T17:19:57.582Z,5.26
2022-12-23T17:22:23.951Z,5.32
2022-12-23T17:24:50.339Z,5.40
2022-12-23T17:27:16.705Z,5.29
2022-12-23T17:29:43.387Z,5.26
2022-12-23T17:32:09.738Z,5.20
2022-12-23T17:34:36.156Z,5.22
2022-12-23T17:37:02.592Z,5.20
2022-12-23T17:39:29.006Z,5.71
2022-12-23T17:41:55.589Z,5.80
2022-12-23T17:44:21.976Z,5.66
2022-12-23T17:46:48.337Z,5.73
2022-12-23T17:49:14.727Z,5.83
2022-12-23T17:51:41.118Z,5.81
2022-12-23T17:54:08.135Z,5.98
2022-12-23T17:56:34.705Z,5.80
2022-12-23T17:59:01.069Z,5.83
2022-12-23T18:01:27.486Z,5.83
2022-12-23T18:03:53.953Z,5.66
2022-12-23T18:06:20.322Z,5.53
2022-12-23T18:08:46.670Z,5.71
2022-12-23T18:11:13.012Z,5.84
2022-12-23T18:13:39.397Z,5.68
2022-12-23T18:16:05.784Z,5.68
2022-12-23T18:18:43.485Z,5.86
2022-12-23T18:21:12.416Z,5.97
2022-12-23T18:23:39.009Z,5.71
2022-12-23T18:26:05.351Z,5.70
2022-12-23T18:28:31.931Z,5.71
2022-12-23T18:30:58.599Z,5.86
2022-12-23T18:33:25.059Z,5.98
2022-12-23T18:35:51.413Z,5.94
2022-12-23T18:38:17.805Z,6.07
2022-12-23T18:40:44.417Z,5.91
2022-12-23T18:43:10.790Z,5.91
2022-12-23T18:45:37.377Z,6.09
2022-12-23T18:48:03.743Z,6.12
2022-12-23T18:50:30.301Z,6.07
2022-12-23T18:52:56.657Z,6.02
2022-12-23T18:55:23.017Z,5.74
2022-12-23T18:57:49.385Z,5.66
2022-12-23T19:00:15.756Z,5.66
2022-12-23T19:02:42.133Z,5.77
2022-12-23T19:05:08.505Z,5.71
2022-12-23T19:07:34.900Z,5.67
2022-12-23T19:10:01.501Z,5.61
2022-12-23T19:12:27.872Z,5.75
2022-12-23T19:14:54.233Z,5.75
2022-12-23T19:17:20.613Z,5.86
2022-12-23T19:19:47.185Z,5.90
2022-12-23T19:22:13.550Z,5.88
2022-12-23T19:24:58.270Z,5.91
2022-12-23T19:27:26.509Z,5.91
2022-12-23T19:29:53.098Z,5.97
2022-12-23T19:32:19.482Z,5.98
2022-12-23T19:34:45.840Z,5.90
2022-12-23T19:37:12.185Z,6.08
2022-12-23T19:39:38.551Z,5.99
2022-12-23T19:42:04.911Z,5.98
2022-12-23T19:44:31.274Z,6.02
2022-12-23T19:46:57.616Z,5.95
2022-12-23T19:49:23.961Z,5.78
2022-12-23T19:51:50.364Z,5.63
2022-12-23T19:54:16.763Z,5.74
2022-12-23T19:56:43.145Z,5.90
2022-12-23T19:59:09.517Z,5.97
2022-12-23T20:01:36.038Z,5.98
2022-12-23T20:04:02.454Z,5.93
2022-12-23T20:06:28.830Z,5.95
2022-12-23T20:09:00.318Z,5.97
2022-12-23T20:11:27.632Z,6.07
2022-12-23T20:13:53.999Z,6.08
2022-12-23T20:16:22.069Z,5.99
2022-12-23T20:18:48.454Z,6.07
2022-12-23T20:21:14.825Z,6.05
2022-12-23T20:23:41.431Z,6.05
2022-12-23T20:26:08.307Z,5.97
2022-12-23T20:28:34.662Z,5.77
2022-12-23T20:31:01.080Z,5.68
2022-12-23T20:33:27.709Z,5.63
2022-12-23T20:35:54.085Z,6.12
2022-12-23T20:39:31.960Z,5.93
2022-12-23T20:41:58.556Z,5.75
2022-12-23T20:44:34.648Z,5.80
2022-12-23T20:47:01.879Z,5.66
2022-12-23T20:49:28.294Z,5.60
2022-12-23T20:51:54.891Z,5.51
2022-12-23T20:54:23.807Z,5.46
2022-12-23T20:56:52.815Z,5.46
2022-12-23T20:59:19.164Z,5.42
2022-12-23T21:01:45.574Z,5.46
2022-12-23T21:04:12.139Z,5.53
2022-12-23T21:06:38.510Z,5.53
2022-12-23T21:09:05.091Z,5.46
2022-12-23T21:11:31.471Z,5.42
2022-12-23T21:14:04.142Z,5.39
2022-12-23T21:16:32.738Z,5.42
2022-12-23T21:18:59.127Z,5.39
2022-12-23T21:21:26.179Z,5.40
2022-12-23T21:23:52.529Z,5.36
2022-12-23T21:26:18.903Z,5.38
2022-12-23T21:28:45.488Z,5.36
2022-12-23T21:31:11.919Z,5.38
2022-12-23T21:33:38.548Z,5.36
2022-12-23T21:36:04.941Z,5.33
2022-12-23T21:38:31.549Z,5.35
2022-12-23T21:40:57.943Z,5.32
2022-12-23T21:43:24.373Z,5.30
2022-12-23T21:45:50.752Z,5.33
2022-12-23T21:48:17.331Z,5.32
2022-12-23T21:50:43.726Z,5.32
2022-12-23T21:53:10.134Z,5.35
2022-12-23T21:55:36.517Z,5.33
2022-12-23T21:58:02.863Z,5.33
2022-12-23T22:00:29.247Z,5.30
2022-12-23T22:02:55.627Z,5.30
2022-12-23T22:05:22.016Z,5.29
2022-12-23T22:07:48.576Z,5.29
2022-12-23T22:10:14.933Z,5.29
2022-12-23T22:12:41.285Z,5.30
2022-12-23T22:15:11.519Z,5.30
2022-12-23T22:17:38.303Z,5.26
2022-12-23T22:20:04.912Z,5.26
2022-12-23T22:22:31.295Z,5.26
2022-12-23T22:24:57.687Z,5.28
2022-12-23T22:27:24.027Z,5.28
2022-12-23T22:29:50.374Z,5.29
2022-12-23T22:32:16.720Z,5.28
2022-12-23T22:34:43.067Z,5.28
2022-12-23T22:37:09.437Z,5.28
2022-12-23T22:39:35.773Z,5.28
2022-12-23T22:42:02.145Z,5.26
2022-12-23T22:44:28.518Z,5.25
2022-12-23T22:46:54.998Z,5.26
2022-12-23T22:49:21.482Z,5.28
2022-12-23T22:51:48.066Z,5.23
2022-12-23T22:54:14.471Z,5.25
2022-12-23T22:56:40.857Z,5.26
2022-12-23T22:59:07.249Z,5.26
2022-12-23T23:01:33.648Z,5.28
2022-12-23T23:04:00.028Z,5.28
2022-12-23T23:06:27.106Z,5.26
2022-12-23T23:08:53.490Z,5.28
2022-12-23T23:11:19.862Z,5.29
2022-12-23T23:13:46.206Z,5.23
2022-12-23T23:16:12.647Z,5.26
2022-12-23T23:18:39.089Z,5.23
2022-12-23T23:21:05.434Z,5.25
2022-12-23T23:23:31.794Z,5.26
2022-12-23T23:25:58.156Z,5.22
2022-12-23T23:28:24.734Z,5.23
2022-12-23T23:31:09.770Z,5.23
2022-12-23T23:33:37.459Z,5.25
2022-12-23T23:36:04.028Z,5.28
2022-12-23T23:38:30.438Z,5.23
2022-12-23T23:40:57.019Z,5.25
2022-12-23T23:43:23.410Z,5.26
2022-12-23T23:45:49.794Z,5.25
2022-12-23T23:48:16.140Z,5.23
2022-12-23T23:50:42.497Z,5.23
2022-12-23T23:53:09.070Z,5.23
2022-12-23T23:55:35.457Z,5.23
2022-12-23T23:58:01.815Z,5.25
